createdAt,value
2023-01-19T00:01:47.627Z,6.57
2023-01-19T00:04:16.534Z,5.43
2023-01-19T00:06:46.872Z,5.30
2023-01-19T00:09:17.082Z,5.30
2023-01-19T00:11:47.235Z,4.97
2023-01-19T00:14:17.953Z,5.37
2023-01-19T00:16:48.428Z,6.23
2023-01-19T00:19:19.152Z,4.93
2023-01-19T00:21:48.194Z,5.37
2023-01-19T00:24:18.559Z,5.20
2023-01-19T00:26:48.701Z,5.93
2023-01-19T00:29:21.186Z,5.10
2023-01-19T00:31:50.264Z,5.13
2023-01-19T00:34:20.326Z,5.77
2023-01-19T00:36:50.218Z,5.70
2023-01-19T00:39:20.509Z,4.30
2023-01-19T00:42:07.882Z,4.97
2023-01-19T00:44:39.991Z,5.73
2023-01-19T00:47:08.469Z,5.00
2023-01-19T00:49:38.522Z,5.07
2023-01-19T00:52:07.458Z,4.83
2023-01-19T00:54:38.100Z,4.47
2023-01-19T00:57:08.822Z,4.77
2023-01-19T00:59:40.498Z,4.93
2023-01-19T01:02:12.312Z,4.63
2023-01-19T01:04:43.227Z,5.70
2023-01-19T01:07:14.144Z,4.77
2023-01-19T01:09:44.636Z,4.53
2023-01-19T01:12:13.526Z,5.00
2023-01-19T01:14:44.275Z,5.20
2023-01-19T01:17:14.499Z,4.57
2023-01-19T01:19:43.892Z,4.77
2023-01-19T01:22:13.572Z,6.03
2023-01-19T01:24:44.845Z,5.27
2023-01-19T01:27:15.306Z,6.00
2023-01-19T01:29:47.961Z,6.30
2023-01-19T01:32:18.727Z,5.60
2023-01-19T01:34:48.312Z,5.70
2023-01-19T01:37:18.462Z,6.13
2023-01-19T01:39:49.143Z,5.50
2023-01-19T01:42:20.470Z,5.80
2023-01-19T01:44:54.809Z,5.93
2023-01-19T01:47:34.539Z,5.60
2023-01-19T01:50:13.453Z,5.67
2023-01-19T01:53:07.270Z,5.23
2023-01-19T01:55:49.755Z,5.20
2023-01-19T01:58:18.770Z,5.23
2023-01-19T02:01:07.353Z,5.57
2023-01-19T02:03:37.973Z,5.07
2023-01-19T02:06:11.769Z,5.90
2023-01-19T02:09:06.662Z,5.23
2023-01-19T02:11:54.739Z,4.67
2023-01-19T02:14:24.831Z,5.40
2023-01-19T02:16:57.321Z,4.77
2023-01-19T02:19:36.465Z,4.27
2023-01-19T02:22:17.413Z,4.77
2023-01-19T02:24:50.987Z,4.07
2023-01-19T02:27:22.899Z,4.47
2023-01-19T02:29:52.280Z,4.27
2023-01-19T02:32:21.790Z,4.60
2023-01-19T02:34:50.908Z,4.63
2023-01-19T02:37:23.377Z,4.70
2023-01-19T02:40:00.908Z,4.40
2023-01-19T02:42:36.714Z,5.23
2023-01-19T02:45:12.365Z,5.07
2023-01-19T02:47:46.035Z,5.30
2023-01-19T02:50:42.491Z,4.60
2023-01-19T02:53:52.591Z,4.63
2023-01-19T02:56:44.257Z,5.10
2023-01-19T02:59:30.737Z,5.10
2023-01-19T03:02:20.147Z,5.70
2023-01-19T03:05:08.909Z,5.07
2023-01-19T03:07:57.295Z,4.70
2023-01-19T03:10:37.698Z,4.97
2023-01-19T03:13:18.231Z,4.97
2023-01-19T03:15:52.465Z,5.20
2023-01-19T03:18:28.497Z,5.60
2023-01-19T03:21:03.221Z,5.40
2023-01-19T03:23:36.130Z,6.43
2023-01-19T03:26:10.616Z,5.77
2023-01-19T03:28:45.709Z,5.10
2023-01-19T03:31:22.837Z,5.37
2023-01-19T03:33:58.987Z,6.27
2023-01-19T03:36:35.866Z,6.33
2023-01-19T03:39:10.259Z,6.13
2023-01-19T03:41:45.068Z,6.20
2023-01-19T03:44:15.896Z,6.50
2023-01-19T03:46:47.661Z,6.57
2023-01-19T03:49:18.709Z,6.10
2023-01-19T03:51:48.944Z,5.53
2023-01-19T03:54:18.355Z,6.43
2023-01-19T03:56:48.302Z,6.77
2023-01-19T03:59:20.552Z,8.10
2023-01-19T04:01:50.697Z,5.93
2023-01-19T04:04:20.600Z,6.40
2023-01-19T04:06:49.001Z,15.67
2023-01-19T04:09:19.442Z,6.60
2023-01-19T04:11:52.034Z,6.50
2023-01-19T04:14:23.300Z,5.43
2023-01-19T04:16:53.195Z,6.10
2023-01-19T04:19:22.617Z,7.10
2023-01-19T04:21:52.206Z,7.23
2023-01-19T04:24:22.607Z,6.77
2023-01-19T04:26:54.099Z,7.27
2023-01-19T04:29:25.636Z,6.10
2023-01-19T04:31:55.761Z,5.87
2023-01-19T04:34:25.219Z,6.47
2023-01-19T04:36:56.039Z,6.33
2023-01-19T04:39:26.421Z,5.77
2023-01-19T04:41:57.505Z,6.20
2023-01-19T04:44:28.801Z,6.60
2023-01-19T04:46:58.746Z,6.67
2023-01-19T04:49:28.136Z,6.77
2023-01-19T04:51:57.749Z,7.27
2023-01-19T04:54:27.700Z,7.07
2023-01-19T04:56:57.135Z,5.73
2023-01-19T04:59:28.182Z,6.13
2023-01-19T05:01:58.109Z,7.70
2023-01-19T05:04:28.617Z,6.97
2023-01-19T05:06:58.334Z,7.60
2023-01-19T05:09:28.614Z,6.73
2023-01-19T05:11:58.034Z,6.30
2023-01-19T05:14:29.565Z,6.77
2023-01-19T05:17:00.564Z,8.53
2023-01-19T05:19:30.555Z,6.40
2023-01-19T05:22:00.936Z,5.63
2023-01-19T05:24:30.830Z,6.13
2023-01-19T05:27:00.680Z,6.30
2023-01-19T05:29:32.139Z,6.70
2023-01-19T05:32:01.981Z,6.37
2023-01-19T05:34:32.631Z,6.50
2023-01-19T05:37:02.102Z,6.37
2023-01-19T05:39:31.544Z,5.40
2023-01-19T05:42:01.695Z,6.00
2023-01-19T05:44:33.552Z,6.30
2023-01-19T05:47:03.645Z,6.73
2023-01-19T05:49:33.526Z,6.10
2023-01-19T05:52:04.044Z,5.50
2023-01-19T05:54:32.645Z,4.87
2023-01-19T05:57:02.483Z,5.30
2023-01-19T05:59:33.784Z,5.53
2023-01-19T06:02:03.594Z,5.00
2023-01-19T06:04:33.563Z,5.00
2023-01-19T06:07:03.648Z,3.40
2023-01-19T06:09:33.649Z,4.67
2023-01-19T06:12:03.112Z,4.37
2023-01-19T06:14:34.162Z,4.00
2023-01-19T06:17:03.765Z,3.57
2023-01-19T06:19:33.196Z,3.83
2023-01-19T06:22:02.118Z,3.67
2023-01-19T06:24:31.754Z,3.53
2023-01-19T06:27:02.335Z,4.00
2023-01-19T06:29:33.829Z,3.77
2023-01-19T06:32:03.975Z,3.60
2023-01-19T06:34:33.443Z,3.27
2023-01-19T06:37:03.056Z,3.50
2023-01-19T06:39:31.471Z,3.60
2023-01-19T06:42:00.456Z,3.17
2023-01-19T06:44:29.833Z,3.97
2023-01-19T06:47:15.177Z,4.27
2023-01-19T06:49:46.014Z,3.10
2023-01-19T06:52:16.537Z,3.77
2023-01-19T06:54:46.770Z,3.70
2023-01-19T06:57:16.425Z,3.67
2023-01-19T06:59:47.123Z,4.17
2023-01-19T07:02:27.690Z,3.70
2023-01-19T07:04:59.157Z,3.13
2023-01-19T07:07:27.810Z,3.50
2023-01-19T07:09:57.743Z,3.80
2023-01-19T07:12:26.781Z,3.17
2023-01-19T07:14:57.729Z,3.97
2023-01-19T07:17:29.023Z,3.80
2023-01-19T07:20:00.053Z,3.40
2023-01-19T07:22:29.453Z,3.90
2023-01-19T07:24:59.631Z,4.10
2023-01-19T07:27:30.144Z,4.40
2023-01-19T07:30:01.668Z,3.97
2023-01-19T07:32:32.644Z,3.20
2023-01-19T07:35:02.606Z,4.17
2023-01-19T07:37:33.165Z,4.47
2023-01-19T07:40:02.622Z,4.13
2023-01-19T07:42:32.616Z,4.07
2023-01-19T07:45:03.192Z,4.30
2023-01-19T07:47:34.703Z,4.13
2023-01-19T07:50:06.497Z,4.53
2023-01-19T07:52:36.468Z,4.53
2023-01-19T07:55:07.414Z,5.10
2023-01-19T07:57:37.543Z,4.37
2023-01-19T08:00:12.164Z,4.60
2023-01-19T08:02:43.119Z,4.90
2023-01-19T08:05:13.972Z,4.53
2023-01-19T08:07:44.408Z,4.20
2023-01-19T08:10:15.259Z,4.30
2023-01-19T08:12:44.251Z,4.20
2023-01-19T08:15:16.479Z,4.20
2023-01-19T08:17:48.208Z,4.80
2023-01-19T08:20:19.005Z,4.53
2023-01-19T08:22:50.523Z,4.03
2023-01-19T08:25:21.004Z,4.00
2023-01-19T08:27:51.052Z,3.80
2023-01-19T08:30:23.417Z,3.57
2023-01-19T08:32:55.044Z,4.63
2023-01-19T08:35:25.649Z,3.73
2023-01-19T08:37:56.770Z,4.90
2023-01-19T08:40:28.107Z,4.60
2023-01-19T08:43:04.081Z,3.60
2023-01-19T08:45:33.723Z,4.00
2023-01-19T08:48:06.827Z,3.30
2023-01-19T08:50:37.966Z,3.80
2023-01-19T08:53:08.153Z,3.97
2023-01-19T08:55:39.837Z,4.33
2023-01-19T08:58:10.322Z,4.37
2023-01-19T09:00:41.708Z,3.50
2023-01-19T09:03:15.998Z,4.60
2023-01-19T09:05:46.245Z,3.53
2023-01-19T09:08:17.228Z,4.50
2023-01-19T09:10:49.652Z,2.90
2023-01-19T09:13:21.011Z,3.67
2023-01-19T09:15:50.462Z,3.53
2023-01-19T09:18:23.274Z,3.30
2023-01-19T09:20:52.938Z,3.57
2023-01-19T09:23:23.337Z,3.60
2023-01-19T09:25:59.983Z,3.70
2023-01-19T09:28:29.913Z,4.20
2023-01-19T09:30:59.102Z,3.63
2023-01-19T09:33:31.324Z,3.80
2023-01-19T09:36:02.671Z,4.10
2023-01-19T09:38:33.120Z,4.67
2023-01-19T09:41:04.905Z,4.77
2023-01-19T09:43:42.969Z,4.43
2023-01-19T09:46:19.338Z,3.80
2023-01-19T09:48:54.276Z,4.40
2023-01-19T09:51:27.217Z,4.50
2023-01-19T09:54:13.108Z,4.30
2023-01-19T09:56:44.098Z,3.70
2023-01-19T09:59:24.711Z,4.43
2023-01-19T10:02:25.570Z,3.30
2023-01-19T10:05:03.361Z,4.07
2023-01-19T10:07:53.959Z,4.13
2023-01-19T10:10:26.853Z,2.80
2023-01-19T10:13:37.075Z,4.13
2023-01-19T10:16:27.410Z,4.00
2023-01-19T10:19:04.198Z,4.10
2023-01-19T10:21:42.008Z,4.30
2023-01-19T10:24:22.267Z,4.00
2023-01-19T10:26:55.429Z,4.03
2023-01-19T10:29:29.896Z,3.70
2023-01-19T10:32:09.986Z,4.33
2023-01-19T10:34:40.225Z,4.50
2023-01-19T10:37:29.761Z,4.43
2023-01-19T10:40:15.029Z,4.47
2023-01-19T10:42:44.979Z,4.37
2023-01-19T10:45:18.898Z,3.77
2023-01-19T10:47:50.247Z,4.17
2023-01-19T10:50:31.280Z,5.00
2023-01-19T10:53:05.190Z,4.43
2023-01-19T10:55:38.399Z,3.67
2023-01-19T10:58:28.767Z,4.73
2023-01-19T11:01:14.721Z,3.40
2023-01-19T11:03:44.589Z,4.20
2023-01-19T11:06:33.753Z,4.23
2023-01-19T11:09:19.648Z,4.50
2023-01-19T11:11:52.828Z,3.40
2023-01-19T11:14:24.919Z,4.27
2023-01-19T11:16:57.923Z,3.90
2023-01-19T11:19:30.643Z,3.83
2023-01-19T11:22:22.472Z,3.97
2023-01-19T11:24:53.718Z,3.50
2023-01-19T11:27:24.414Z,3.53
2023-01-19T11:30:09.798Z,3.80
2023-01-19T11:32:39.555Z,3.43
2023-01-19T11:35:39.524Z,3.63
2023-01-19T11:38:26.333Z,4.17
2023-01-19T11:41:00.209Z,3.43
2023-01-19T11:43:48.039Z,3.37
2023-01-19T11:46:20.189Z,2.60
2023-01-19T11:48:58.752Z,3.40
2023-01-19T11:51:35.532Z,2.73
2023-01-19T11:54:20.487Z,3.30
2023-01-19T11:56:53.730Z,2.80
2023-01-19T11:59:25.019Z,3.00
2023-01-19T12:01:58.671Z,2.63
2023-01-19T12:04:35.029Z,2.57
2023-01-19T12:07:11.209Z,3.17
2023-01-19T12:09:46.914Z,3.00
2023-01-19T12:12:32.483Z,2.63
2023-01-19T12:15:10.452Z,3.33
2023-01-19T12:17:50.363Z,3.03
2023-01-19T12:20:29.961Z,2.30
2023-01-19T12:23:14.883Z,2.20
2023-01-19T12:26:06.653Z,2.50
2023-01-19T12:28:43.495Z,3.07
2023-01-19T12:31:18.969Z,2.70
2023-01-19T12:33:49.563Z,2.53
2023-01-19T12:36:38.676Z,2.27
2023-01-19T12:39:19.444Z,2.40
2023-01-19T12:41:49.951Z,2.40
2023-01-19T12:44:35.570Z,1.80
2023-01-19T12:47:24.908Z,2.20
2023-01-19T12:49:59.510Z,2.03
2023-01-19T12:52:35.104Z,2.83
2023-01-19T12:55:24.569Z,1.97
2023-01-19T12:58:03.026Z,2.13
2023-01-19T13:00:40.462Z,2.00
2023-01-19T13:03:46.725Z,2.40
2023-01-19T13:06:16.925Z,2.07
2023-01-19T13:09:02.555Z,3.00
2023-01-19T13:11:34.719Z,2.90
2023-01-19T13:14:38.043Z,2.87
2023-01-19T13:17:38.564Z,3.30
2023-01-19T13:20:29.577Z,2.90
2023-01-19T13:23:53.473Z,3.40
2023-01-19T13:26:25.731Z,3.93
2023-01-19T13:28:58.708Z,3.60
2023-01-19T13:31:37.648Z,3.57
2023-01-19T13:34:16.305Z,3.63
2023-01-19T13:36:48.592Z,3.93
2023-01-19T13:39:25.119Z,3.70
2023-01-19T13:41:58.561Z,3.27
2023-01-19T13:44:32.340Z,3.67
2023-01-19T13:47:06.355Z,3.50
2023-01-19T13:49:42.244Z,3.43
2023-01-19T13:52:18.488Z,3.20
2023-01-19T13:54:52.440Z,4.47
2023-01-19T13:57:29.153Z,3.80
2023-01-19T14:00:18.747Z,3.40
2023-01-19T14:03:00.002Z,3.40
2023-01-19T14:05:33.687Z,4.57
2023-01-19T14:08:13.819Z,4.30
2023-01-19T14:10:46.054Z,4.10
2023-01-19T14:13:22.491Z,3.70
2023-01-19T14:16:00.710Z,3.70
2023-01-19T14:18:33.717Z,4.30
2023-01-19T14:21:07.760Z,3.93
2023-01-19T14:23:48.289Z,3.30
2023-01-19T14:26:46.953Z,5.03
2023-01-19T14:29:28.297Z,3.77
2023-01-19T14:32:23.555Z,4.30
2023-01-19T14:35:15.041Z,4.13
2023-01-19T14:37:52.105Z,2.90
2023-01-19T14:40:24.592Z,3.67
2023-01-19T14:43:00.959Z,3.63
2023-01-19T14:45:37.016Z,3.30
2023-01-19T14:48:18.058Z,3.63
2023-01-19T14:51:02.444Z,3.70
2023-01-19T14:53:39.185Z,3.53
2023-01-19T14:56:09.551Z,3.90
2023-01-19T14:58:40.873Z,4.30
2023-01-19T15:01:10.426Z,4.93
2023-01-19T15:03:45.623Z,4.70
2023-01-19T15:06:19.601Z,3.73
2023-01-19T15:08:53.918Z,3.57
2023-01-19T15:11:28.632Z,3.13
2023-01-19T15:13:57.559Z,3.73
2023-01-19T15:16:28.901Z,4.10
2023-01-19T15:18:58.384Z,3.30
2023-01-19T15:21:27.363Z,4.10
2023-01-19T15:23:59.243Z,3.97
2023-01-19T15:26:28.804Z,4.33
2023-01-19T15:28:58.601Z,3.77
2023-01-19T15:31:28.779Z,4.20
2023-01-19T15:33:58.455Z,3.87
2023-01-19T15:36:29.143Z,3.50
2023-01-19T15:38:58.901Z,4.60
2023-01-19T15:41:30.545Z,4.27
2023-01-19T15:44:00.688Z,3.93
2023-01-19T15:46:29.377Z,4.50
2023-01-19T15:48:59.223Z,4.50
2023-01-19T15:51:29.082Z,4.57
2023-01-19T15:53:59.990Z,3.80
2023-01-19T15:56:31.844Z,4.07
2023-01-19T15:59:02.599Z,3.40
2023-01-19T16:01:32.886Z,3.73
2023-01-19T16:04:04.456Z,3.23
2023-01-19T16:06:35.796Z,3.97
2023-01-19T16:09:06.239Z,4.20
2023-01-19T16:11:38.478Z,4.13
2023-01-19T16:14:08.855Z,4.23
2023-01-19T16:16:38.593Z,4.47
2023-01-19T16:19:09.009Z,4.23
2023-01-19T16:21:38.302Z,3.73
2023-01-19T16:24:10.467Z,3.53
2023-01-19T16:26:40.451Z,3.13
2023-01-19T16:29:11.773Z,4.87
2023-01-19T16:31:43.738Z,3.80
2023-01-19T16:34:13.761Z,3.53
2023-01-19T16:36:43.716Z,3.40
2023-01-19T16:39:16.707Z,3.60
2023-01-19T16:41:48.102Z,3.40
2023-01-19T16:44:20.062Z,3.80
2023-01-19T16:46:50.739Z,3.30
2023-01-19T16:49:22.969Z,3.80
2023-01-19T16:51:52.957Z,3.53
2023-01-19T16:54:26.607Z,3.90
2023-01-19T16:56:57.802Z,4.33
2023-01-19T16:59:29.779Z,3.40
2023-01-19T17:01:59.729Z,3.50
2023-01-19T17:04:30.084Z,3.47
2023-01-19T17:06:58.696Z,3.80
2023-01-19T17:09:30.829Z,4.10
2023-01-19T17:12:00.213Z,3.73
2023-01-19T17:14:29.361Z,4.10
2023-01-19T17:17:03.325Z,4.70
2023-01-19T17:19:33.250Z,4.43
2023-01-19T17:22:03.115Z,5.30
2023-01-19T17:24:33.795Z,4.60
2023-01-19T17:27:02.977Z,4.20
2023-01-19T17:29:31.980Z,4.10
2023-01-19T17:32:00.919Z,4.37
2023-01-19T17:34:30.626Z,4.40
2023-01-19T17:37:03.267Z,4.20
2023-01-19T17:39:34.011Z,3.97
2023-01-19T17:42:04.289Z,4.40
2023-01-19T17:44:33.223Z,3.80
2023-01-19T17:47:01.995Z,4.13
2023-01-19T17:49:31.878Z,4.40
2023-01-19T17:52:00.398Z,4.10
2023-01-19T17:54:33.040Z,4.50
2023-01-19T17:57:03.055Z,3.70
2023-01-19T17:59:32.697Z,4.07
2023-01-19T18:02:01.755Z,3.17
2023-01-19T18:04:32.326Z,3.83
2023-01-19T18:07:02.384Z,4.20
2023-01-19T18:09:32.884Z,4.10
2023-01-19T18:12:01.943Z,4.17
2023-01-19T18:14:31.613Z,4.00
2023-01-19T18:17:00.045Z,4.33
2023-01-19T18:19:29.458Z,3.90
2023-01-19T18:21:59.161Z,4.60
2023-01-19T18:24:28.676Z,10.23
2023-01-19T18:26:59.221Z,5.20
2023-01-19T18:29:28.633Z,4.70
2023-01-19T18:31:57.590Z,3.90
2023-01-19T18:34:27.103Z,4.90
2023-01-19T18:36:56.794Z,4.90
2023-01-19T18:39:25.739Z,4.90
2023-01-19T18:41:57.042Z,4.80
2023-01-19T18:44:27.054Z,5.60
2023-01-19T18:46:57.347Z,5.30
2023-01-19T18:49:41.461Z,4.73
2023-01-19T18:52:12.041Z,5.40
2023-01-19T18:54:44.120Z,5.50
2023-01-19T18:57:17.507Z,4.73
2023-01-19T18:59:49.492Z,5.73
2023-01-19T19:02:19.268Z,5.37
2023-01-19T19:04:48.656Z,5.87
2023-01-19T19:07:18.812Z,5.07
2023-01-19T19:09:48.357Z,5.30
2023-01-19T19:12:19.564Z,5.80
2023-01-19T19:14:49.436Z,5.00
2023-01-19T19:17:19.586Z,5.50
2023-01-19T19:19:50.575Z,5.80
2023-01-19T19:22:20.481Z,5.43
2023-01-19T19:24:50.019Z,5.57
2023-01-19T19:27:21.183Z,5.83
2023-01-19T19:29:50.549Z,5.70
2023-01-19T19:32:21.144Z,5.50
2023-01-19T19:34:53.254Z,5.93
2023-01-19T19:37:22.931Z,6.03
2023-01-19T19:39:52.243Z,5.83
2023-01-19T19:42:23.434Z,7.10
2023-01-19T19:44:53.552Z,5.90
2023-01-19T19:47:22.595Z,6.60
2023-01-19T19:49:52.716Z,5.20
2023-01-19T19:52:21.871Z,5.23
2023-01-19T19:54:51.486Z,5.30
2023-01-19T19:57:21.845Z,6.50
2023-01-19T19:59:51.157Z,5.53
2023-01-19T20:02:20.186Z,5.03
2023-01-19T20:04:49.607Z,4.53
2023-01-19T20:07:18.766Z,5.40
2023-01-19T20:09:47.764Z,5.57
2023-01-19T20:12:17.652Z,5.20
2023-01-19T20:14:49.127Z,4.83
2023-01-19T20:17:18.717Z,6.10
2023-01-19T20:19:49.037Z,5.13
2023-01-19T20:22:18.488Z,5.60
2023-01-19T20:24:47.406Z,5.93
2023-01-19T20:27:18.313Z,5.27
2023-01-19T20:29:58.677Z,5.20
2023-01-19T20:32:28.011Z,5.87
2023-01-19T20:34:57.340Z,7.20
2023-01-19T20:37:26.334Z,5.63
2023-01-19T20:39:55.961Z,6.07
2023-01-19T20:42:25.506Z,6.33
2023-01-19T20:44:57.445Z,5.30
2023-01-19T20:47:27.113Z,4.97
2023-01-19T20:49:56.614Z,5.53
2023-01-19T20:52:25.010Z,4.97
2023-01-19T20:54:54.742Z,5.43
2023-01-19T20:57:24.289Z,4.83
2023-01-19T20:59:53.834Z,6.23
2023-01-19T21:02:26.790Z,7.97
2023-01-19T21:04:56.744Z,7.47
2023-01-19T21:07:26.641Z,6.50
2023-01-19T21:09:56.784Z,7.20
2023-01-19T21:12:26.458Z,5.97
2023-01-19T21:14:56.313Z,6.07
2023-01-19T21:17:26.795Z,7.20
2023-01-19T21:19:56.983Z,6.50
2023-01-19T21:22:26.700Z,6.10
2023-01-19T21:24:56.533Z,6.77
2023-01-19T21:27:25.586Z,5.93
2023-01-19T21:29:54.577Z,7.10
2023-01-19T21:32:24.590Z,6.03
2023-01-19T21:34:54.430Z,7.23
2023-01-19T21:37:23.534Z,6.50
2023-01-19T21:39:53.971Z,6.47
2023-01-19T21:42:22.429Z,7.40
2023-01-19T21:44:51.644Z,7.03
2023-01-19T21:47:21.860Z,7.33
2023-01-19T21:49:51.939Z,6.87
2023-01-19T21:52:23.777Z,9.40
2023-01-19T21:54:54.556Z,7.83
2023-01-19T21:57:24.021Z,7.30
2023-01-19T21:59:53.917Z,7.20
2023-01-19T22:02:37.375Z,6.73
2023-01-19T22:05:09.584Z,9.00
2023-01-19T22:07:40.294Z,8.10
2023-01-19T22:10:13.812Z,5.80
2023-01-19T22:12:42.598Z,6.77
2023-01-19T22:15:12.661Z,6.10
2023-01-19T22:17:42.810Z,6.53
2023-01-19T22:20:14.332Z,6.60
2023-01-19T22:22:46.654Z,7.13
2023-01-19T22:25:16.554Z,6.77
2023-01-19T22:27:46.290Z,6.13
2023-01-19T22:30:15.940Z,6.70
2023-01-19T22:32:45.995Z,6.53
2023-01-19T22:35:15.493Z,5.73
2023-01-19T22:37:45.488Z,6.40
2023-01-19T22:40:16.678Z,6.80
2023-01-19T22:42:48.604Z,7.10
2023-01-19T22:45:18.633Z,6.03
2023-01-19T22:47:49.889Z,7.00
2023-01-19T22:50:20.817Z,5.80
2023-01-19T22:52:50.558Z,6.10
2023-01-19T22:55:20.419Z,5.80
2023-01-19T22:57:51.011Z,7.20
2023-01-19T23:00:23.888Z,6.40
2023-01-19T23:02:53.049Z,6.00
2023-01-19T23:05:23.708Z,6.10
2023-01-19T23:07:55.116Z,4.67
2023-01-19T23:10:24.070Z,6.00
2023-01-19T23:12:53.154Z,5.63
2023-01-19T23:15:22.472Z,5.53
2023-01-19T23:17:54.299Z,4.70
2023-01-19T23:20:23.676Z,5.30
2023-01-19T23:22:54.397Z,6.30
2023-01-19T23:25:23.404Z,5.93
2023-01-19T23:27:52.884Z,5.17
2023-01-19T23:30:23.679Z,4.93
2023-01-19T23:32:53.810Z,5.57
2023-01-19T23:35:23.760Z,5.40
2023-01-19T23:37:54.177Z,5.73
2023-01-19T23:40:23.657Z,5.57
2023-01-19T23:42:52.991Z,6.10
2023-01-19T23:45:21.460Z,5.80
2023-01-19T23:47:50.960Z,5.23
2023-01-19T23:50:20.739Z,5.40
2023-01-19T23:52:49.679Z,6.37
2023-01-19T23:55:21.427Z,6.70
2023-01-19T23:57:50.721Z,6.10
